Bruck an der Leitha, Austria
Current Conditions -  °F | °C
As of 10:50 PM on Thursday 23 Oct 2014 (Local Time) from LOWW Reporting Station
Overcast Overcast  
Wind Chill: 38°   Ceiling: 1700
Heat Index: 46°   Visibility: 6mi
Dew Point: 41°   Wind: 23mph
Humidity: 81%   Direction: 340°NNW
Pressure: 30.03"   Gusts: NA
Location:  48.02°N, 16.78°E
Report Text: LOWW 232150Z 34020KT 9999 OVC017 08/05 Q1017 NOSIG
Loading
Personal Weather Stations






























Interactive Weather Map
Tropical Storm Tracking
New forecast layout! Learn more

10-Day Weather Forecast

Advertisements
Track Severe Weather on mobile